createdAt,value
2023-05-22T00:01:43.773Z,95225.53
2023-05-22T00:04:30.244Z,95217.28
2023-05-22T00:07:16.449Z,95218.78
2023-05-22T00:10:02.512Z,95223.53
2023-05-22T00:12:48.507Z,95225.84
2023-05-22T00:15:34.450Z,95207.66
2023-05-22T00:18:20.381Z,95226.50
2023-05-22T00:21:06.468Z,95221.03
2023-05-22T00:23:52.249Z,95221.00
2023-05-22T00:26:38.141Z,95222.50
2023-05-22T00:29:24.003Z,95213.06
2023-05-22T00:32:09.758Z,95216.97
2023-05-22T00:34:55.951Z,95206.78
2023-05-22T00:37:41.760Z,95207.50
2023-05-22T00:40:27.685Z,95189.50
2023-05-22T00:43:14.664Z,95204.41
2023-05-22T00:46:01.045Z,95205.06
2023-05-22T00:48:48.506Z,95207.06
2023-05-22T00:51:34.591Z,95207.06
2023-05-22T00:54:20.887Z,95208.22
2023-05-22T00:57:07.345Z,95197.28
2023-05-22T00:59:53.699Z,95198.00
2023-05-22T01:02:43.119Z,95189.38
2023-05-22T01:05:29.419Z,95191.69
2023-05-22T01:08:15.654Z,95190.81
2023-05-22T01:11:07.431Z,95190.78
2023-05-22T01:13:56.649Z,95199.34
2023-05-22T01:16:46.894Z,95199.72
2023-05-22T01:20:05.991Z,95194.47
2023-05-22T01:23:11.924Z,95201.47
2023-05-22T01:26:37.605Z,95197.47
2023-05-22T01:29:23.525Z,95178.22
2023-05-22T01:32:16.656Z,95175.53
2023-05-22T01:35:15.669Z,95184.94
2023-05-22T01:38:02.098Z,95178.75
2023-05-22T01:40:49.727Z,95184.22
2023-05-22T01:43:36.229Z,95181.78
2023-05-22T01:46:25.272Z,95177.09
2023-05-22T01:49:11.452Z,95178.63
2023-05-22T01:52:18.904Z,95179.38
2023-05-22T01:55:24.198Z,95178.94
2023-05-22T01:58:45.494Z,95180.09
2023-05-22T02:01:32.906Z,95171.88
2023-05-22T02:04:22.956Z,95183.25
2023-05-22T02:07:12.133Z,95174.69
2023-05-22T02:10:00.704Z,95170.81
2023-05-22T02:12:46.755Z,95175.06
2023-05-22T02:15:33.596Z,95169.16
2023-05-22T02:18:19.755Z,95174.25
2023-05-22T02:21:08.652Z,95168.44
2023-05-22T02:23:54.511Z,95166.84
2023-05-22T02:26:40.521Z,95176.28
2023-05-22T02:29:26.650Z,95170.00
2023-05-22T02:32:12.876Z,95162.97
2023-05-22T02:34:58.763Z,95168.44
2023-05-22T02:37:46.536Z,95165.72
2023-05-22T02:40:32.556Z,95162.97
2023-05-22T02:43:18.625Z,95166.84
2023-05-22T02:46:04.552Z,95162.09
2023-05-22T02:48:50.876Z,95164.41
2023-05-22T02:51:37.848Z,95163.97
2023-05-22T02:54:23.923Z,95161.22
2023-05-22T02:57:10.214Z,95168.28
2023-05-22T02:59:57.845Z,95166.69
2023-05-22T03:02:44.155Z,95163.91
2023-05-22T03:05:30.013Z,95154.13
2023-05-22T03:08:16.116Z,95158.09
2023-05-22T03:11:02.154Z,95165.16
2023-05-22T03:13:48.181Z,95147.88
2023-05-22T03:16:34.657Z,95160.38
2023-05-22T03:19:21.084Z,95157.22
2023-05-22T03:22:07.464Z,95168.22
2023-05-22T03:24:55.108Z,95169.03
2023-05-22T03:27:41.348Z,95163.41
2023-05-22T03:30:27.396Z,95172.03
2023-05-22T03:33:25.793Z,95174.41
2023-05-22T03:36:12.149Z,95176.81
2023-05-22T03:38:58.026Z,95165.84
2023-05-22T03:41:43.670Z,95179.88
2023-05-22T03:45:04.776Z,95182.19
2023-05-22T03:47:53.967Z,95177.44
2023-05-22T03:50:42.067Z,95188.38
2023-05-22T03:53:29.463Z,95180.97
2023-05-22T03:56:15.551Z,95195.44
2023-05-22T03:59:01.424Z,95200.91
2023-05-22T04:01:47.252Z,95200.09
2023-05-22T04:04:38.685Z,95195.81
2023-05-22T04:07:24.989Z,95201.22
2023-05-22T04:10:12.149Z,95196.09
2023-05-22T04:12:59.561Z,95203.94
2023-05-22T04:15:46.825Z,95210.91
2023-05-22T04:18:32.819Z,95215.66
2023-05-22T04:21:19.142Z,95199.97
2023-05-22T04:24:07.540Z,95215.66
2023-05-22T04:26:53.727Z,95214.09
2023-05-22T04:29:41.607Z,95206.31
2023-05-22T04:32:29.917Z,95212.50
2023-05-22T04:35:18.649Z,95216.81
2023-05-22T04:38:06.660Z,95200.66
2023-05-22T04:40:53.014Z,95218.03
2023-05-22T04:43:40.138Z,95216.81
2023-05-22T04:46:26.123Z,95218.69
2023-05-22T04:49:12.107Z,95211.13
2023-05-22T04:51:57.915Z,95222.44
2023-05-22T04:54:44.630Z,95223.88
2023-05-22T04:57:31.392Z,95214.38
2023-05-22T05:00:26.634Z,95219.41
2023-05-22T05:03:13.239Z,95219.84
2023-05-22T05:06:01.171Z,95225.31
2023-05-22T05:08:48.270Z,95227.78
2023-05-22T05:11:35.564Z,95223.44
2023-05-22T05:14:21.920Z,95234.94
2023-05-22T05:17:08.354Z,95237.47
2023-05-22T05:19:54.488Z,95230.50
2023-05-22T05:22:40.645Z,95227.88
2023-05-22T05:25:28.508Z,95235.06
2023-05-22T05:28:14.644Z,95234.78
2023-05-22T05:31:01.918Z,95233.63
2023-05-22T05:34:08.285Z,95239.53
2023-05-22T05:37:18.143Z,95236.06
2023-05-22T05:40:07.290Z,95238.06
2023-05-22T05:42:55.483Z,95232.69
2023-05-22T05:45:44.711Z,95240.22
2023-05-22T05:48:30.701Z,95236.78
2023-05-22T05:51:17.759Z,95233.78
2023-05-22T05:54:05.341Z,95230.28
2023-05-22T05:56:51.596Z,95237.78
2023-05-22T05:59:37.533Z,95244.13
2023-05-22T06:02:47.578Z,95236.00
2023-05-22T06:05:55.812Z,95232.13
2023-05-22T06:09:07.206Z,95247.66
2023-05-22T06:12:15.376Z,95246.91
2023-05-22T06:15:05.514Z,95246.25
2023-05-22T06:17:52.315Z,95246.28
2023-05-22T06:20:39.676Z,95250.31
2023-05-22T06:23:26.519Z,95253.47
2023-05-22T06:26:24.577Z,95244.22
2023-05-22T06:29:11.262Z,95242.69
2023-05-22T06:31:57.539Z,95246.75
2023-05-22T06:34:45.647Z,95242.19
2023-05-22T06:37:35.872Z,95237.59
2023-05-22T06:40:22.620Z,95245.59
2023-05-22T06:43:11.394Z,95242.13
2023-05-22T06:46:07.131Z,95241.81
2023-05-22T06:49:20.129Z,95231.00
2023-05-22T06:52:11.053Z,95238.47
2023-05-22T06:55:04.604Z,95236.97
2023-05-22T06:57:55.048Z,95243.72
2023-05-22T07:00:43.210Z,95233.53
2023-05-22T07:03:38.908Z,95241.44
2023-05-22T07:06:54.254Z,95239.94
2023-05-22T07:09:42.240Z,95236.81
2023-05-22T07:12:31.243Z,95232.13
2023-05-22T07:15:17.798Z,95235.31
2023-05-22T07:18:10.426Z,95232.50
2023-05-22T07:20:59.359Z,95231.41
2023-05-22T07:23:45.606Z,95225.84
2023-05-22T07:26:31.846Z,95222.75
2023-05-22T07:29:24.691Z,95222.75
2023-05-22T07:32:12.911Z,95220.44
2023-05-22T07:35:00.648Z,95225.13
2023-05-22T07:37:48.217Z,95226.72
2023-05-22T07:40:35.273Z,95236.16
2023-05-22T07:43:23.078Z,95233.84
2023-05-22T07:46:09.874Z,95235.38
2023-05-22T07:49:04.791Z,95229.16
2023-05-22T07:51:52.284Z,95229.22
2023-05-22T07:54:42.289Z,95232.41
2023-05-22T07:57:29.985Z,95224.59
2023-05-22T08:00:21.239Z,95224.59
2023-05-22T08:03:07.255Z,95234.91
2023-05-22T08:05:53.318Z,95227.09
2023-05-22T08:18:19.724Z,95235.88
2023-05-22T08:21:05.840Z,95232.06
2023-05-22T08:24:17.895Z,95232.84
2023-05-22T08:27:04.660Z,95234.50
2023-05-22T08:30:09.771Z,95234.91
2023-05-22T08:34:13.505Z,95232.22
2023-05-22T08:37:00.050Z,95235.38
2023-05-22T08:39:46.226Z,95233.81
2023-05-22T08:47:53.603Z,95228.47
2023-05-22T08:50:44.099Z,95225.38
2023-05-22T08:53:34.607Z,95223.84
2023-05-22T08:56:23.076Z,95223.09
2023-05-22T08:59:09.102Z,95217.63
2023-05-22T09:01:55.260Z,95226.31
2023-05-22T09:04:41.779Z,95227.91
2023-05-22T09:07:27.994Z,95214.59
2023-05-22T09:10:13.919Z,95224.88
2023-05-22T09:13:10.000Z,95235.50
2023-05-22T09:16:00.871Z,95228.88
2023-05-22T09:18:46.908Z,95216.72
2023-05-22T09:21:32.983Z,95218.69
2023-05-22T09:24:18.921Z,95235.31
2023-05-22T09:27:07.251Z,95229.47
2023-05-22T09:29:56.730Z,95231.47
2023-05-22T09:32:43.131Z,95222.44
2023-05-22T09:35:31.742Z,95226.00
2023-05-22T09:38:18.435Z,95218.16
2023-05-22T09:41:04.458Z,95219.75
2023-05-22T09:43:53.554Z,95218.97
2023-05-22T09:46:45.905Z,95227.66
2023-05-22T09:49:31.807Z,95216.63
2023-05-22T09:52:18.406Z,95216.66
2023-05-22T09:55:07.049Z,95208.84
2023-05-22T09:57:52.985Z,95216.31
2023-05-22T10:00:39.341Z,95212.84
2023-05-22T10:03:27.315Z,95204.59
2023-05-22T10:06:14.412Z,95211.28
2023-05-22T10:09:05.859Z,95225.88
2023-05-22T10:11:53.922Z,95223.91
2023-05-22T10:14:39.944Z,95226.25
2023-05-22T10:17:26.954Z,95210.50
2023-05-22T10:20:13.539Z,95207.78
2023-05-22T10:22:59.927Z,95208.97
2023-05-22T10:25:47.251Z,95202.25
2023-05-22T10:28:41.911Z,95200.69
2023-05-22T10:31:44.599Z,95195.97
2023-05-22T10:35:02.445Z,95203.84
2023-05-22T10:37:55.427Z,95196.75
2023-05-22T10:41:14.212Z,95198.72
2023-05-22T10:44:02.901Z,95189.25
2023-05-22T10:46:51.950Z,95194.00
2023-05-22T10:49:39.277Z,95182.19
2023-05-22T10:52:25.387Z,95175.91
2023-05-22T10:55:11.929Z,95178.25
2023-05-22T10:57:58.348Z,95175.88
2023-05-22T11:00:45.124Z,95165.66
2023-05-22T11:04:09.200Z,95167.56
2023-05-22T11:07:05.656Z,95161.63
2023-05-22T11:10:05.351Z,95155.28
2023-05-22T11:13:11.601Z,95152.47
2023-05-22T11:15:58.411Z,95147.38
2023-05-22T11:18:45.290Z,95147.38
2023-05-22T11:21:32.052Z,95148.91
2023-05-22T11:24:18.890Z,95151.22
2023-05-22T11:27:07.113Z,95157.47
2023-05-22T11:29:54.719Z,95143.28
2023-05-22T11:32:46.345Z,95142.41
2023-05-22T11:35:32.863Z,95128.94
2023-05-22T11:38:18.860Z,95132.41
2023-05-22T11:41:05.709Z,95128.06
2023-05-22T11:43:52.887Z,95128.41
2023-05-22T11:46:39.868Z,95123.25
2023-05-22T11:49:27.668Z,95113.81
2023-05-22T11:52:14.071Z,95121.28
2023-05-22T11:55:00.232Z,95113.03
2023-05-22T11:57:48.118Z,95105.16
2023-05-22T12:00:34.546Z,95109.09
2023-05-22T12:03:21.268Z,95108.69
2023-05-22T12:06:08.752Z,95103.47
2023-05-22T12:08:55.071Z,95101.97
2023-05-22T12:11:47.123Z,95113.00
2023-05-22T12:14:33.300Z,95115.31
2023-05-22T12:17:19.448Z,95108.28
2023-05-22T12:20:07.397Z,95113.00
2023-05-22T12:22:56.210Z,95098.00
2023-05-22T12:25:43.323Z,95092.47
2023-05-22T12:28:32.681Z,95091.63
2023-05-22T12:31:25.160Z,95106.53
2023-05-22T12:34:11.747Z,95092.34
2023-05-22T12:36:58.733Z,95094.66
2023-05-22T12:39:58.105Z,95098.91
2023-05-22T12:42:45.131Z,95081.91
2023-05-22T12:45:31.103Z,95084.97
2023-05-22T12:48:17.971Z,95099.00
2023-05-22T12:51:04.126Z,95087.81
2023-05-22T12:53:51.179Z,95084.41
2023-05-22T12:56:37.162Z,95065.72
2023-05-22T12:59:23.408Z,95090.06
2023-05-22T13:02:10.023Z,95095.75
2023-05-22T13:04:55.836Z,95077.34
2023-05-22T13:07:42.292Z,95075.03
2023-05-22T13:10:28.394Z,95075.09
2023-05-22T13:13:14.619Z,95069.00
2023-05-22T13:16:01.092Z,95077.81
2023-05-22T13:18:47.364Z,95072.41
2023-05-22T13:21:33.704Z,95070.28
2023-05-22T13:24:19.723Z,95065.81
2023-05-22T13:27:06.103Z,95067.78
2023-05-22T13:29:52.080Z,95077.72
2023-05-22T13:32:38.400Z,95070.16
2023-05-22T13:35:25.362Z,95055.09
2023-05-22T13:38:11.209Z,95061.44
2023-05-22T13:40:56.908Z,95058.41
2023-05-22T13:43:42.923Z,95058.44
2023-05-22T13:46:28.921Z,95061.53
2023-05-22T13:49:15.319Z,95055.41
2023-05-22T13:52:01.478Z,95045.38
2023-05-22T13:54:47.772Z,95053.47
2023-05-22T13:57:53.981Z,95050.81
2023-05-22T14:00:40.111Z,95036.38
2023-05-22T14:03:36.905Z,95029.13
2023-05-22T14:06:23.531Z,95043.66
2023-05-22T14:09:09.886Z,95024.59
2023-05-22T14:12:38.864Z,95036.34
2023-05-22T14:15:25.154Z,95045.09
2023-05-22T14:18:11.870Z,95052.28
2023-05-22T14:21:04.548Z,95045.97
2023-05-22T14:24:02.568Z,95038.66
2023-05-22T14:26:58.252Z,95033.00
2023-05-22T14:29:44.584Z,95036.25
2023-05-22T14:32:30.803Z,95055.56
2023-05-22T14:35:19.102Z,95050.69
2023-05-22T14:38:04.994Z,95031.78
2023-05-22T14:40:52.119Z,95037.63
2023-05-22T14:43:38.433Z,95048.00
2023-05-22T14:46:24.562Z,95047.38
2023-05-22T14:49:14.227Z,95058.41
2023-05-22T14:52:00.471Z,95055.53
2023-05-22T14:54:46.854Z,95048.94
2023-05-22T14:57:33.010Z,95047.75
2023-05-22T15:00:20.059Z,95035.56
2023-05-22T15:03:06.021Z,95054.09
2023-05-22T15:05:52.241Z,95050.84
2023-05-22T15:08:38.359Z,95056.66
2023-05-22T15:11:24.459Z,95021.16
2023-05-22T15:14:10.700Z,95037.22
2023-05-22T15:16:59.931Z,95042.41
2023-05-22T15:19:45.852Z,95048.38
2023-05-22T15:22:32.411Z,95045.56
2023-05-22T15:25:18.095Z,95041.22
2023-05-22T15:28:09.403Z,95035.25
2023-05-22T15:30:57.033Z,95040.09
2023-05-22T15:33:42.837Z,95054.78
2023-05-22T15:36:29.446Z,95053.63
2023-05-22T15:39:15.596Z,95058.59
2023-05-22T15:42:22.227Z,95057.78
2023-05-22T15:45:10.682Z,95043.81
2023-05-22T15:48:20.149Z,95050.28
2023-05-22T15:51:06.994Z,95044.66
2023-05-22T15:53:53.270Z,95040.06
2023-05-22T15:56:39.925Z,95044.44
2023-05-22T15:59:25.807Z,95051.41
2023-05-22T16:02:12.135Z,95047.28
2023-05-22T16:04:58.359Z,95041.44
2023-05-22T16:07:45.231Z,95047.44
2023-05-22T16:10:32.064Z,95055.75
2023-05-22T16:13:24.463Z,95060.91
2023-05-22T16:16:10.447Z,95065.19
2023-05-22T16:18:56.551Z,95070.97
2023-05-22T16:21:45.509Z,95063.38
2023-05-22T16:24:31.752Z,95072.25
2023-05-22T16:27:17.803Z,95074.41
2023-05-22T16:30:04.530Z,95074.19
2023-05-22T16:32:50.875Z,95075.44
2023-05-22T16:35:36.735Z,95062.16
2023-05-22T16:38:22.662Z,95070.53
2023-05-22T16:41:08.529Z,95065.84
2023-05-22T16:43:54.563Z,95077.00
2023-05-22T16:46:40.751Z,95080.59
2023-05-22T16:49:27.100Z,95088.53
2023-05-22T16:52:13.400Z,95094.16
2023-05-22T16:54:59.770Z,95097.41
2023-05-22T16:57:46.458Z,95105.41
2023-05-22T17:00:32.623Z,95124.75
2023-05-22T17:03:19.744Z,95103.22
2023-05-22T17:06:06.217Z,95118.66
2023-05-22T17:08:52.264Z,95116.41
2023-05-22T17:11:38.288Z,95122.00
2023-05-22T17:14:26.288Z,95119.72
2023-05-22T17:21:48.314Z,95125.06
2023-05-22T17:24:34.419Z,95110.56
2023-05-22T17:27:35.035Z,95133.47
2023-05-22T17:30:22.600Z,95129.63
2023-05-22T17:33:08.671Z,95144.66
2023-05-22T17:35:54.650Z,95137.56
2023-05-22T17:38:40.813Z,95133.28
2023-05-22T17:42:06.555Z,95140.78
2023-05-22T17:44:52.803Z,95158.97
2023-05-22T17:47:39.030Z,95160.22
2023-05-22T17:50:25.496Z,95185.03
2023-05-22T17:53:13.771Z,95191.41
2023-05-22T17:56:00.126Z,95191.03
2023-05-22T17:58:46.583Z,95182.41
2023-05-22T18:02:10.109Z,95195.06
2023-05-22T18:04:56.878Z,95205.72
2023-05-22T18:07:43.685Z,95212.84
2023-05-22T18:10:30.053Z,95219.19
2023-05-22T18:13:16.384Z,95227.47
2023-05-22T18:16:03.587Z,95228.66
2023-05-22T18:18:49.867Z,95234.94
2023-05-22T18:21:38.950Z,95243.59
2023-05-22T18:24:27.866Z,95244.38
2023-05-22T18:27:14.471Z,95242.00
2023-05-22T18:30:02.134Z,95239.66
2023-05-22T18:32:48.303Z,95241.22
2023-05-22T18:35:34.687Z,95247.50
2023-05-22T18:38:22.181Z,95244.72
2023-05-22T18:41:08.186Z,95249.84
2023-05-22T18:43:54.158Z,95260.47
2023-05-22T18:46:40.293Z,95253.00
2023-05-22T18:49:26.568Z,95249.81
2023-05-22T18:52:12.886Z,95263.19
2023-05-22T18:54:59.158Z,95263.97
2023-05-22T18:57:47.138Z,95254.47
2023-05-22T19:00:33.541Z,95266.25
2023-05-22T19:03:19.758Z,95267.81
2023-05-22T19:06:06.036Z,95277.25
2023-05-22T19:08:52.835Z,95280.81
2023-05-22T19:11:39.154Z,95281.56
2023-05-22T19:14:25.056Z,95289.41
2023-05-22T19:17:13.140Z,95293.75
2023-05-22T19:20:00.344Z,95290.94
2023-05-22T19:22:48.083Z,95292.53
2023-05-22T19:25:34.398Z,95299.16
2023-05-22T19:28:20.159Z,95308.56
2023-05-22T19:31:06.484Z,95307.38
2023-05-22T19:33:52.353Z,95295.09
2023-05-22T19:36:38.420Z,95300.59
2023-05-22T19:39:25.188Z,95303.75
2023-05-22T19:42:12.407Z,95306.06
2023-05-22T19:44:59.389Z,95310.38
2023-05-22T19:47:45.375Z,95305.97
2023-05-22T19:50:43.854Z,95309.47
2023-05-22T19:53:32.564Z,95310.28
2023-05-22T19:56:18.665Z,95316.16
2023-05-22T19:59:05.924Z,95312.94
2023-05-22T20:01:53.929Z,95307.41
2023-05-22T20:04:43.199Z,95324.66
2023-05-22T20:07:29.137Z,95312.78
2023-05-22T20:10:16.596Z,95319.03
2023-05-22T20:13:02.594Z,95320.56
2023-05-22T20:15:51.472Z,95318.13
2023-05-22T20:18:38.606Z,95320.44
2023-05-22T20:21:24.885Z,95330.59
2023-05-22T20:24:17.614Z,95331.31
2023-05-22T20:27:07.158Z,95336.75
2023-05-22T20:29:53.577Z,95332.75
2023-05-22T20:32:40.382Z,95325.22
2023-05-22T20:35:26.650Z,95330.69
2023-05-22T20:38:14.419Z,95331.00
2023-05-22T20:41:02.846Z,95337.31
2023-05-22T20:43:49.081Z,95328.63
2023-05-22T20:46:35.534Z,95340.34
2023-05-22T20:49:21.915Z,95340.28
2023-05-22T20:52:10.020Z,95344.94
2023-05-22T20:54:58.856Z,95343.69
2023-05-22T20:57:44.876Z,95333.78
2023-05-22T21:00:31.214Z,95352.56
2023-05-22T21:03:17.788Z,95354.13
2023-05-22T21:06:03.744Z,95353.69
2023-05-22T21:08:51.437Z,95350.06
2023-05-22T21:11:39.554Z,95341.31
2023-05-22T21:14:25.811Z,95345.16
2023-05-22T21:17:12.011Z,95341.94
2023-05-22T21:19:58.183Z,95349.72
2023-05-22T21:22:44.444Z,95343.34
2023-05-22T21:25:30.563Z,95347.97
2023-05-22T21:28:16.734Z,95347.88
2023-05-22T21:31:02.685Z,95340.69
2023-05-22T21:33:48.864Z,95344.19
2023-05-22T21:36:34.957Z,95342.81
2023-05-22T21:39:22.413Z,95345.13
2023-05-22T21:42:08.970Z,95341.09
2023-05-22T21:44:54.945Z,95341.09
2023-05-22T21:47:41.313Z,95336.66
2023-05-22T21:50:27.203Z,95340.13
2023-05-22T21:53:13.124Z,95343.13
2023-05-22T21:55:59.041Z,95336.00
2023-05-22T21:58:45.189Z,95341.34
2023-05-22T22:01:31.402Z,95346.78
2023-05-22T22:04:17.412Z,95343.53
2023-05-22T22:07:04.073Z,95349.00
2023-05-22T22:09:50.355Z,95349.72
2023-05-22T22:12:36.438Z,95346.16
2023-05-22T22:15:23.015Z,95348.03
2023-05-22T22:18:09.884Z,95350.34
2023-05-22T22:20:56.077Z,95343.22
2023-05-22T22:23:42.080Z,95335.97
2023-05-22T22:26:30.732Z,95348.56
2023-05-22T22:29:25.314Z,95343.03
2023-05-22T22:32:12.359Z,95346.13
2023-05-22T22:34:58.166Z,95333.81
2023-05-22T22:37:44.281Z,95342.03
2023-05-22T22:40:31.926Z,95344.34
2023-05-22T22:43:18.081Z,95335.69
2023-05-22T22:46:04.499Z,95332.53
2023-05-22T22:48:51.213Z,95319.16
2023-05-22T22:51:37.475Z,95332.31
2023-05-22T22:54:24.119Z,95330.69
2023-05-22T22:57:10.380Z,95335.41
2023-05-22T22:59:56.665Z,95336.16
2023-05-22T23:02:44.991Z,95325.03
2023-05-22T23:05:31.477Z,95336.16
2023-05-22T23:08:18.490Z,95328.22
2023-05-22T23:11:04.922Z,95335.28
2023-05-22T23:13:50.818Z,95332.78
2023-05-22T23:16:38.058Z,95337.56
2023-05-22T23:19:24.354Z,95344.53
2023-05-22T23:22:10.592Z,95342.19
2023-05-22T23:24:56.374Z,95341.31
2023-05-22T23:27:42.435Z,95334.16
2023-05-22T23:30:28.475Z,95332.59
2023-05-22T23:33:14.370Z,95333.38
2023-05-22T23:36:00.906Z,95340.88
2023-05-22T23:38:47.448Z,95337.25
2023-05-22T23:41:33.865Z,95335.69
2023-05-22T23:44:20.939Z,95334.91
2023-05-22T23:47:07.189Z,95328.91
2023-05-22T23:49:55.263Z,95341.88
2023-05-22T23:52:41.167Z,95328.47
2023-05-22T23:55:26.930Z,95337.03
2023-05-22T23:58:12.763Z,95334.25
